sensor_id;sensor_type;location;lat;lon;timestamp;P1;durP1;ratioP1;P2;durP2;ratioP2
50569;SDS011;36525;49.398;7.614;2022-09-09T00:09:47;7.40;;;1.00;;
50569;SDS011;36525;49.398;7.614;2022-09-09T00:18:27;6.20;;;1.00;;
50569;SDS011;36525;49.398;7.614;2022-09-09T00:21:14;5.88;;;0.93;;
50569;SDS011;36525;49.398;7.614;2022-09-09T00:23:44;6.38;;;1.05;;
50569;SDS011;36525;49.398;7.614;2022-09-09T00:26:28;6.28;;;0.93;;
50569;SDS011;36525;49.398;7.614;2022-09-09T00:29:09;6.22;;;0.90;;
50569;SDS011;36525;49.398;7.614;2022-09-09T00:31:45;5.18;;;0.80;;
50569;SDS011;36525;49.398;7.614;2022-09-09T00:34:18;7.78;;;1.10;;
50569;SDS011;36525;49.398;7.614;2022-09-09T00:36:50;3.67;;;0.73;;
50569;SDS011;36525;49.398;7.614;2022-09-09T00:39:36;6.20;;;0.85;;
50569;SDS011;36525;49.398;7.614;2022-09-09T00:42:32;3.70;;;0.75;;
50569;SDS011;36525;49.398;7.614;2022-09-09T00:48:09;5.13;;;1.17;;
50569;SDS011;36525;49.398;7.614;2022-09-09T00:50:49;4.35;;;1.00;;
50569;SDS011;36525;49.398;7.614;2022-09-09T00:56:45;7.28;;;0.77;;
50569;SDS011;36525;49.398;7.614;2022-09-09T00:59:28;4.72;;;1.00;;
50569;SDS011;36525;49.398;7.614;2022-09-09T01:02:36;3.83;;;0.75;;
50569;SDS011;36525;49.398;7.614;2022-09-09T01:05:06;6.13;;;0.70;;
50569;SDS011;36525;49.398;7.614;2022-09-09T01:07:40;4.55;;;0.60;;
50569;SDS011;36525;49.398;7.614;2022-09-09T01:10:36;7.95;;;0.80;;
50569;SDS011;36525;49.398;7.614;2022-09-09T01:13:20;4.68;;;0.70;;
50569;SDS011;36525;49.398;7.614;2022-09-09T01:15:52;5.15;;;0.60;;
50569;SDS011;36525;49.398;7.614;2022-09-09T01:18:27;8.80;;;0.93;;
50569;SDS011;36525;49.398;7.614;2022-09-09T01:21:38;3.72;;;0.70;;
50569;SDS011;36525;49.398;7.614;2022-09-09T01:26:45;4.05;;;0.90;;
50569;SDS011;36525;49.398;7.614;2022-09-09T01:29:15;3.40;;;0.68;;
50569;SDS011;36525;49.398;7.614;2022-09-09T01:35:05;2.90;;;0.60;;
50569;SDS011;36525;49.398;7.614;2022-09-09T01:37:40;6.40;;;0.88;;
50569;SDS011;36525;49.398;7.614;2022-09-09T01:40:08;3.40;;;0.68;;
50569;SDS011;36525;49.398;7.614;2022-09-09T01:42:35;5.47;;;0.70;;
50569;SDS011;36525;49.398;7.614;2022-09-09T01:45:02;4.82;;;0.80;;
50569;SDS011;36525;49.398;7.614;2022-09-09T01:47:30;6.15;;;1.15;;
50569;SDS011;36525;49.398;7.614;2022-09-09T01:49:57;7.15;;;0.88;;
50569;SDS011;36525;49.398;7.614;2022-09-09T01:52:25;4.55;;;0.50;;
50569;SDS011;36525;49.398;7.614;2022-09-09T01:54:52;3.05;;;0.70;;
50569;SDS011;36525;49.398;7.614;2022-09-09T02:00:20;4.57;;;0.70;;
50569;SDS011;36525;49.398;7.614;2022-09-09T02:03:00;5.97;;;1.30;;
50569;SDS011;36525;49.398;7.614;2022-09-09T02:08:33;5.35;;;0.70;;
50569;SDS011;36525;49.398;7.614;2022-09-09T02:11:09;5.40;;;0.70;;
50569;SDS011;36525;49.398;7.614;2022-09-09T02:13:40;3.65;;;0.65;;
50569;SDS011;36525;49.398;7.614;2022-09-09T02:16:19;7.13;;;0.80;;
50569;SDS011;36525;49.398;7.614;2022-09-09T02:18:57;5.85;;;0.90;;
50569;SDS011;36525;49.398;7.614;2022-09-09T02:21:31;8.25;;;0.70;;
50569;SDS011;36525;49.398;7.614;2022-09-09T02:24:02;4.53;;;1.00;;
50569;SDS011;36525;49.398;7.614;2022-09-09T02:26:34;4.32;;;0.75;;
50569;SDS011;36525;49.398;7.614;2022-09-09T02:29:08;3.85;;;0.70;;
50569;SDS011;36525;49.398;7.614;2022-09-09T02:31:46;4.80;;;0.70;;
50569;SDS011;36525;49.398;7.614;2022-09-09T02:34:16;4.10;;;0.90;;
50569;SDS011;36525;49.398;7.614;2022-09-09T02:36:46;4.15;;;0.60;;
50569;SDS011;36525;49.398;7.614;2022-09-09T02:39:16;4.28;;;0.73;;
50569;SDS011;36525;49.398;7.614;2022-09-09T02:41:43;5.70;;;0.65;;
50569;SDS011;36525;49.398;7.614;2022-09-09T02:44:11;4.80;;;0.70;;
50569;SDS011;36525;49.398;7.614;2022-09-09T02:46:44;5.20;;;0.80;;
50569;SDS011;36525;49.398;7.614;2022-09-09T02:54:30;6.28;;;0.80;;
50569;SDS011;36525;49.398;7.614;2022-09-09T02:59:57;6.75;;;0.98;;
50569;SDS011;36525;49.398;7.614;2022-09-09T03:02:25;4.07;;;0.55;;
50569;SDS011;36525;49.398;7.614;2022-09-09T03:04:52;2.70;;;0.52;;
50569;SDS011;36525;49.398;7.614;2022-09-09T03:07:19;6.47;;;0.60;;
50569;SDS011;36525;49.398;7.614;2022-09-09T03:09:46;4.22;;;0.80;;
50569;SDS011;36525;49.398;7.614;2022-09-09T03:12:13;2.20;;;0.70;;
50569;SDS011;36525;49.398;7.614;2022-09-09T03:14:40;5.10;;;0.95;;
50569;SDS011;36525;49.398;7.614;2022-09-09T03:17:08;6.75;;;0.70;;
50569;SDS011;36525;49.398;7.614;2022-09-09T03:19:35;4.72;;;0.70;;
50569;SDS011;36525;49.398;7.614;2022-09-09T03:22:02;5.88;;;0.70;;
50569;SDS011;36525;49.398;7.614;2022-09-09T03:24:30;3.22;;;0.50;;
50569;SDS011;36525;49.398;7.614;2022-09-09T03:26:57;5.03;;;0.52;;
50569;SDS011;36525;49.398;7.614;2022-09-09T03:29:24;5.93;;;0.80;;
50569;SDS011;36525;49.398;7.614;2022-09-09T03:31:51;2.53;;;0.60;;
50569;SDS011;36525;49.398;7.614;2022-09-09T03:34:18;5.15;;;0.70;;
50569;SDS011;36525;49.398;7.614;2022-09-09T03:36:44;4.70;;;0.90;;
50569;SDS011;36525;49.398;7.614;2022-09-09T03:39:12;4.47;;;0.70;;
50569;SDS011;36525;49.398;7.614;2022-09-09T03:41:40;3.33;;;0.63;;
50569;SDS011;36525;49.398;7.614;2022-09-09T03:44:07;4.60;;;0.70;;
50569;SDS011;36525;49.398;7.614;2022-09-09T03:46:34;5.15;;;0.98;;
50569;SDS011;36525;49.398;7.614;2022-09-09T03:49:01;6.80;;;0.98;;
50569;SDS011;36525;49.398;7.614;2022-09-09T03:51:28;4.50;;;0.60;;
50569;SDS011;36525;49.398;7.614;2022-09-09T03:53:55;3.65;;;0.65;;
50569;SDS011;36525;49.398;7.614;2022-09-09T03:56:24;2.60;;;0.60;;
50569;SDS011;36525;49.398;7.614;2022-09-09T03:58:51;2.78;;;0.50;;
50569;SDS011;36525;49.398;7.614;2022-09-09T04:01:18;3.45;;;0.45;;
50569;SDS011;36525;49.398;7.614;2022-09-09T04:03:45;2.80;;;0.60;;
50569;SDS011;36525;49.398;7.614;2022-09-09T04:06:15;3.88;;;0.50;;
50569;SDS011;36525;49.398;7.614;2022-09-09T04:08:44;4.75;;;1.00;;
50569;SDS011;36525;49.398;7.614;2022-09-09T04:11:11;4.00;;;0.75;;
50569;SDS011;36525;49.398;7.614;2022-09-09T04:13:38;5.38;;;0.70;;
50569;SDS011;36525;49.398;7.614;2022-09-09T04:16:05;5.95;;;0.70;;
50569;SDS011;36525;49.398;7.614;2022-09-09T04:18:32;9.98;;;0.70;;
50569;SDS011;36525;49.398;7.614;2022-09-09T04:21:01;4.82;;;0.77;;
50569;SDS011;36525;49.398;7.614;2022-09-09T04:23:29;4.18;;;0.80;;
50569;SDS011;36525;49.398;7.614;2022-09-09T04:25:57;4.68;;;0.65;;
50569;SDS011;36525;49.398;7.614;2022-09-09T04:28:26;5.15;;;0.60;;
50569;SDS011;36525;49.398;7.614;2022-09-09T04:30:57;4.78;;;0.90;;
50569;SDS011;36525;49.398;7.614;2022-09-09T04:33:37;6.75;;;1.13;;
50569;SDS011;36525;49.398;7.614;2022-09-09T04:36:06;5.88;;;0.82;;
50569;SDS011;36525;49.398;7.614;2022-09-09T04:38:34;3.75;;;0.80;;
50569;SDS011;36525;49.398;7.614;2022-09-09T04:41:02;5.70;;;0.68;;
50569;SDS011;36525;49.398;7.614;2022-09-09T04:43:29;5.22;;;0.60;;
50569;SDS011;36525;49.398;7.614;2022-09-09T04:45:57;7.15;;;0.70;;
50569;SDS011;36525;49.398;7.614;2022-09-09T04:48:25;5.50;;;0.60;;
50569;SDS011;36525;49.398;7.614;2022-09-09T04:50:59;3.80;;;0.50;;
50569;SDS011;36525;49.398;7.614;2022-09-09T04:53:32;4.13;;;1.00;;
50569;SDS011;36525;49.398;7.614;2022-09-09T04:56:09;6.90;;;0.98;;
50569;SDS011;36525;49.398;7.614;2022-09-09T04:58:39;5.93;;;0.82;;
50569;SDS011;36525;49.398;7.614;2022-09-09T05:01:10;5.15;;;0.70;;
50569;SDS011;36525;49.398;7.614;2022-09-09T05:03:41;6.47;;;0.80;;
50569;SDS011;36525;49.398;7.614;2022-09-09T05:06:09;8.25;;;0.93;;
50569;SDS011;36525;49.398;7.614;2022-09-09T05:08:39;9.02;;;1.10;;
50569;SDS011;36525;49.398;7.614;2022-09-09T05:11:24;4.20;;;0.70;;
50569;SDS011;36525;49.398;7.614;2022-09-09T05:13:56;3.47;;;0.60;;
50569;SDS011;36525;49.398;7.614;2022-09-09T05:18:53;6.88;;;2.17;;
50569;SDS011;36525;49.398;7.614;2022-09-09T05:21:20;4.35;;;0.73;;
50569;SDS011;36525;49.398;7.614;2022-09-09T05:23:51;6.65;;;0.98;;
50569;SDS011;36525;49.398;7.614;2022-09-09T05:26:19;7.05;;;0.90;;
50569;SDS011;36525;49.398;7.614;2022-09-09T05:28:48;11.38;;;0.80;;
50569;SDS011;36525;49.398;7.614;2022-09-09T05:31:16;4.65;;;0.73;;
50569;SDS011;36525;49.398;7.614;2022-09-09T05:33:45;9.10;;;0.93;;
50569;SDS011;36525;49.398;7.614;2022-09-09T05:36:18;5.38;;;0.75;;
50569;SDS011;36525;49.398;7.614;2022-09-09T05:41:14;5.20;;;0.80;;
50569;SDS011;36525;49.398;7.614;2022-09-09T05:43:41;7.75;;;0.90;;
50569;SDS011;36525;49.398;7.614;2022-09-09T05:46:14;8.98;;;1.13;;
50569;SDS011;36525;49.398;7.614;2022-09-09T05:48:46;6.30;;;0.75;;
50569;SDS011;36525;49.398;7.614;2022-09-09T05:51:18;4.65;;;0.80;;
50569;SDS011;36525;49.398;7.614;2022-09-09T05:53:48;6.35;;;1.13;;
50569;SDS011;36525;49.398;7.614;2022-09-09T05:56:19;7.07;;;1.13;;
50569;SDS011;36525;49.398;7.614;2022-09-09T05:58:51;8.00;;;1.05;;
50569;SDS011;36525;49.398;7.614;2022-09-09T06:01:26;7.57;;;1.20;;
50569;SDS011;36525;49.398;7.614;2022-09-09T06:03:56;9.18;;;1.23;;
50569;SDS011;36525;49.398;7.614;2022-09-09T06:06:24;9.82;;;0.98;;
50569;SDS011;36525;49.398;7.614;2022-09-09T06:09:03;6.25;;;1.10;;
50569;SDS011;36525;49.398;7.614;2022-09-09T06:11:37;8.48;;;0.85;;
50569;SDS011;36525;49.398;7.614;2022-09-09T06:14:05;8.50;;;1.63;;
50569;SDS011;36525;49.398;7.614;2022-09-09T06:16:34;7.88;;;1.10;;
50569;SDS011;36525;49.398;7.614;2022-09-09T06:19:01;9.38;;;1.00;;
50569;SDS011;36525;49.398;7.614;2022-09-09T06:21:33;8.25;;;1.30;;
50569;SDS011;36525;49.398;7.614;2022-09-09T06:24:04;8.85;;;1.02;;
50569;SDS011;36525;49.398;7.614;2022-09-09T06:26:34;9.27;;;1.02;;
50569;SDS011;36525;49.398;7.614;2022-09-09T06:29:03;5.38;;;0.90;;
50569;SDS011;36525;49.398;7.614;2022-09-09T06:31:31;6.38;;;1.00;;
50569;SDS011;36525;49.398;7.614;2022-09-09T06:34:01;9.18;;;1.48;;
50569;SDS011;36525;49.398;7.614;2022-09-09T06:36:29;9.65;;;1.02;;
50569;SDS011;36525;49.398;7.614;2022-09-09T06:38:58;10.20;;;1.85;;
50569;SDS011;36525;49.398;7.614;2022-09-09T06:41:27;6.18;;;0.90;;
50569;SDS011;36525;49.398;7.614;2022-09-09T06:43:55;6.13;;;1.10;;
50569;SDS011;36525;49.398;7.614;2022-09-09T06:46:23;5.28;;;1.10;;
50569;SDS011;36525;49.398;7.614;2022-09-09T06:48:57;7.75;;;1.00;;
50569;SDS011;36525;49.398;7.614;2022-09-09T06:51:27;5.88;;;1.00;;
50569;SDS011;36525;49.398;7.614;2022-09-09T06:54:01;5.97;;;0.90;;
50569;SDS011;36525;49.398;7.614;2022-09-09T06:56:30;13.20;;;1.50;;
50569;SDS011;36525;49.398;7.614;2022-09-09T06:59:03;9.45;;;1.33;;
50569;SDS011;36525;49.398;7.614;2022-09-09T07:01:35;9.60;;;1.55;;
50569;SDS011;36525;49.398;7.614;2022-09-09T07:04:08;8.00;;;1.33;;
50569;SDS011;36525;49.398;7.614;2022-09-09T07:06:38;7.60;;;0.88;;
50569;SDS011;36525;49.398;7.614;2022-09-09T07:09:11;5.75;;;0.90;;
50569;SDS011;36525;49.398;7.614;2022-09-09T07:11:42;10.48;;;1.50;;
50569;SDS011;36525;49.398;7.614;2022-09-09T07:14:12;6.03;;;1.27;;
50569;SDS011;36525;49.398;7.614;2022-09-09T07:16:43;5.75;;;0.80;;
50569;SDS011;36525;49.398;7.614;2022-09-09T07:19:12;11.23;;;1.37;;
50569;SDS011;36525;49.398;7.614;2022-09-09T07:21:40;6.57;;;0.93;;
50569;SDS011;36525;49.398;7.614;2022-09-09T07:24:08;10.13;;;1.50;;
50569;SDS011;36525;49.398;7.614;2022-09-09T07:26:37;7.70;;;1.17;;
50569;SDS011;36525;49.398;7.614;2022-09-09T07:29:06;5.35;;;0.90;;
50569;SDS011;36525;49.398;7.614;2022-09-09T07:31:34;9.38;;;1.20;;
50569;SDS011;36525;49.398;7.614;2022-09-09T07:34:04;8.65;;;1.30;;
50569;SDS011;36525;49.398;7.614;2022-09-09T07:36:35;8.88;;;1.10;;
50569;SDS011;36525;49.398;7.614;2022-09-09T07:39:06;7.03;;;1.10;;
50569;SDS011;36525;49.398;7.614;2022-09-09T07:41:36;7.93;;;1.40;;
50569;SDS011;36525;49.398;7.614;2022-09-09T07:44:14;11.55;;;1.48;;
50569;SDS011;36525;49.398;7.614;2022-09-09T07:46:44;11.32;;;1.27;;
50569;SDS011;36525;49.398;7.614;2022-09-09T07:49:12;8.27;;;1.20;;
50569;SDS011;36525;49.398;7.614;2022-09-09T07:51:40;10.45;;;1.45;;
50569;SDS011;36525;49.398;7.614;2022-09-09T07:54:11;11.25;;;1.58;;
50569;SDS011;36525;49.398;7.614;2022-09-09T07:56:41;10.52;;;1.50;;
50569;SDS011;36525;49.398;7.614;2022-09-09T07:59:08;8.60;;;1.20;;
50569;SDS011;36525;49.398;7.614;2022-09-09T08:01:37;11.45;;;1.50;;
50569;SDS011;36525;49.398;7.614;2022-09-09T08:04:17;14.38;;;1.63;;
50569;SDS011;36525;49.398;7.614;2022-09-09T08:06:55;11.20;;;1.40;;
50569;SDS011;36525;49.398;7.614;2022-09-09T08:09:25;9.40;;;1.33;;
50569;SDS011;36525;49.398;7.614;2022-09-09T08:11:55;15.35;;;1.42;;
50569;SDS011;36525;49.398;7.614;2022-09-09T08:14:23;11.18;;;1.40;;
50569;SDS011;36525;49.398;7.614;2022-09-09T08:16:50;9.35;;;1.00;;
50569;SDS011;36525;49.398;7.614;2022-09-09T08:19:20;7.22;;;1.13;;
50569;SDS011;36525;49.398;7.614;2022-09-09T08:21:47;10.60;;;1.25;;
50569;SDS011;36525;49.398;7.614;2022-09-09T08:24:15;13.10;;;1.40;;
50569;SDS011;36525;49.398;7.614;2022-09-09T08:26:43;9.00;;;1.13;;
50569;SDS011;36525;49.398;7.614;2022-09-09T08:29:13;10.00;;;1.25;;
50569;SDS011;36525;49.398;7.614;2022-09-09T08:31:41;10.32;;;1.38;;
50569;SDS011;36525;49.398;7.614;2022-09-09T08:34:17;8.55;;;1.00;;
50569;SDS011;36525;49.398;7.614;2022-09-09T08:36:47;5.65;;;1.00;;
50569;SDS011;36525;49.398;7.614;2022-09-09T08:39:17;8.15;;;1.42;;
50569;SDS011;36525;49.398;7.614;2022-09-09T08:47:36;12.07;;;1.20;;
50569;SDS011;36525;49.398;7.614;2022-09-09T08:50:41;8.90;;;1.15;;
50569;SDS011;36525;49.398;7.614;2022-09-09T08:58:18;8.27;;;1.25;;
50569;SDS011;36525;49.398;7.614;2022-09-09T09:07:18;11.68;;;1.25;;
50569;SDS011;36525;49.398;7.614;2022-09-09T09:10:01;8.70;;;1.10;;
50569;SDS011;36525;49.398;7.614;2022-09-09T09:12:51;7.50;;;1.20;;
50569;SDS011;36525;49.398;7.614;2022-09-09T09:15:21;16.65;;;1.67;;
50569;SDS011;36525;49.398;7.614;2022-09-09T09:17:57;7.55;;;1.10;;
50569;SDS011;36525;49.398;7.614;2022-09-09T09:20:28;12.30;;;1.30;;
50569;SDS011;36525;49.398;7.614;2022-09-09T09:23:38;7.13;;;1.02;;
50569;SDS011;36525;49.398;7.614;2022-09-09T09:26:13;8.35;;;0.82;;
50569;SDS011;36525;49.398;7.614;2022-09-09T09:28:40;8.43;;;1.30;;
50569;SDS011;36525;49.398;7.614;2022-09-09T09:31:09;8.45;;;1.30;;
50569;SDS011;36525;49.398;7.614;2022-09-09T09:36:25;9.43;;;1.13;;
50569;SDS011;36525;49.398;7.614;2022-09-09T09:39:05;7.95;;;0.90;;
50569;SDS011;36525;49.398;7.614;2022-09-09T09:41:52;7.60;;;0.90;;
50569;SDS011;36525;49.398;7.614;2022-09-09T09:44:27;4.10;;;0.98;;
50569;SDS011;36525;49.398;7.614;2022-09-09T09:47:07;12.68;;;1.63;;
50569;SDS011;36525;49.398;7.614;2022-09-09T09:49:59;11.95;;;1.40;;
50569;SDS011;36525;49.398;7.614;2022-09-09T09:52:29;6.07;;;0.90;;
50569;SDS011;36525;49.398;7.614;2022-09-09T09:57:33;10.15;;;1.38;;
50569;SDS011;36525;49.398;7.614;2022-09-09T10:00:19;6.18;;;1.00;;
50569;SDS011;36525;49.398;7.614;2022-09-09T10:02:49;7.50;;;0.95;;
50569;SDS011;36525;49.398;7.614;2022-09-09T10:19:36;10.80;;;0.90;;
50569;SDS011;36525;49.398;7.614;2022-09-09T10:31:03;7.38;;;1.33;;
50569;SDS011;36525;49.398;7.614;2022-09-09T10:33:44;7.53;;;1.10;;
50569;SDS011;36525;49.398;7.614;2022-09-09T10:36:19;6.65;;;0.90;;
50569;SDS011;36525;49.398;7.614;2022-09-09T10:39:06;8.88;;;1.02;;
50569;SDS011;36525;49.398;7.614;2022-09-09T10:55:57;8.82;;;1.00;;
50569;SDS011;36525;49.398;7.614;2022-09-09T11:01:05;6.60;;;0.80;;
50569;SDS011;36525;49.398;7.614;2022-09-09T11:03:42;4.55;;;0.73;;
50569;SDS011;36525;49.398;7.614;2022-09-09T11:06:14;4.70;;;0.70;;
50569;SDS011;36525;49.398;7.614;2022-09-09T11:08:47;5.82;;;0.88;;
50569;SDS011;36525;49.398;7.614;2022-09-09T11:11:21;7.93;;;0.60;;
50569;SDS011;36525;49.398;7.614;2022-09-09T11:14:13;5.45;;;0.68;;
50569;SDS011;36525;49.398;7.614;2022-09-09T11:16:53;6.28;;;0.80;;
50569;SDS011;36525;49.398;7.614;2022-09-09T11:19:34;6.40;;;0.77;;
50569;SDS011;36525;49.398;7.614;2022-09-09T11:25:05;2.72;;;0.60;;
50569;SDS011;36525;49.398;7.614;2022-09-09T11:36:08;7.32;;;0.70;;
50569;SDS011;36525;49.398;7.614;2022-09-09T11:41:17;3.42;;;0.60;;
50569;SDS011;36525;49.398;7.614;2022-09-09T11:43:51;9.98;;;0.85;;
50569;SDS011;36525;49.398;7.614;2022-09-09T11:46:22;6.77;;;0.77;;
50569;SDS011;36525;49.398;7.614;2022-09-09T11:49:01;5.75;;;0.90;;
50569;SDS011;36525;49.398;7.614;2022-09-09T11:51:30;7.45;;;1.15;;
50569;SDS011;36525;49.398;7.614;2022-09-09T11:56:31;4.63;;;0.60;;
50569;SDS011;36525;49.398;7.614;2022-09-09T12:06:56;2.55;;;0.47;;
50569;SDS011;36525;49.398;7.614;2022-09-09T12:14:54;3.45;;;0.70;;
50569;SDS011;36525;49.398;7.614;2022-09-09T12:17:26;3.15;;;0.47;;
50569;SDS011;36525;49.398;7.614;2022-09-09T12:25:26;2.40;;;0.50;;
50569;SDS011;36525;49.398;7.614;2022-09-09T12:28:03;5.70;;;0.70;;
50569;SDS011;36525;49.398;7.614;2022-09-09T12:30:44;3.85;;;0.80;;
50569;SDS011;36525;49.398;7.614;2022-09-09T12:33:16;5.53;;;0.70;;
50569;SDS011;36525;49.398;7.614;2022-09-09T12:35:46;4.15;;;0.73;;
50569;SDS011;36525;49.398;7.614;2022-09-09T12:38:34;4.97;;;0.90;;
50569;SDS011;36525;49.398;7.614;2022-09-09T12:41:03;7.43;;;1.23;;
50569;SDS011;36525;49.398;7.614;2022-09-09T12:43:30;4.35;;;0.70;;
50569;SDS011;36525;49.398;7.614;2022-09-09T12:46:02;4.60;;;0.95;;
50569;SDS011;36525;49.398;7.614;2022-09-09T12:48:37;5.85;;;0.80;;
50569;SDS011;36525;49.398;7.614;2022-09-09T12:51:18;3.90;;;0.60;;
50569;SDS011;36525;49.398;7.614;2022-09-09T12:53:54;7.18;;;1.02;;
50569;SDS011;36525;49.398;7.614;2022-09-09T12:56:22;5.63;;;0.77;;
50569;SDS011;36525;49.398;7.614;2022-09-09T12:58:53;7.15;;;0.88;;
50569;SDS011;36525;49.398;7.614;2022-09-09T13:01:29;6.57;;;0.98;;
50569;SDS011;36525;49.398;7.614;2022-09-09T13:03:59;5.55;;;0.80;;
50569;SDS011;36525;49.398;7.614;2022-09-09T13:06:28;6.65;;;1.27;;
50569;SDS011;36525;49.398;7.614;2022-09-09T13:08:57;7.30;;;0.77;;
50569;SDS011;36525;49.398;7.614;2022-09-09T13:11:27;7.82;;;1.10;;
50569;SDS011;36525;49.398;7.614;2022-09-09T13:14:02;4.18;;;0.77;;
50569;SDS011;36525;49.398;7.614;2022-09-09T13:16:33;5.00;;;0.70;;
50569;SDS011;36525;49.398;7.614;2022-09-09T13:19:08;4.20;;;1.00;;
50569;SDS011;36525;49.398;7.614;2022-09-09T13:21:39;5.65;;;0.70;;
50569;SDS011;36525;49.398;7.614;2022-09-09T13:27:00;6.22;;;0.75;;
50569;SDS011;36525;49.398;7.614;2022-09-09T13:29:53;5.72;;;0.50;;
50569;SDS011;36525;49.398;7.614;2022-09-09T13:32:22;5.68;;;0.60;;
50569;SDS011;36525;49.398;7.614;2022-09-09T13:34:54;4.50;;;0.65;;
50569;SDS011;36525;49.398;7.614;2022-09-09T13:40:04;6.25;;;0.75;;
50569;SDS011;36525;49.398;7.614;2022-09-09T13:42:33;2.65;;;0.50;;
50569;SDS011;36525;49.398;7.614;2022-09-09T13:45:05;5.50;;;0.65;;
50569;SDS011;36525;49.398;7.614;2022-09-09T13:47:49;4.13;;;0.77;;
50569;SDS011;36525;49.398;7.614;2022-09-09T13:50:22;5.53;;;0.65;;
50569;SDS011;36525;49.398;7.614;2022-09-09T13:52:57;4.28;;;0.68;;
50569;SDS011;36525;49.398;7.614;2022-09-09T13:55:27;2.88;;;0.40;;
50569;SDS011;36525;49.398;7.614;2022-09-09T14:00:31;5.55;;;0.80;;
50569;SDS011;36525;49.398;7.614;2022-09-09T14:03:00;6.47;;;1.02;;
50569;SDS011;36525;49.398;7.614;2022-09-09T14:05:28;2.88;;;0.47;;
50569;SDS011;36525;49.398;7.614;2022-09-09T14:07:58;3.90;;;0.77;;
50569;SDS011;36525;49.398;7.614;2022-09-09T14:10:26;4.05;;;0.75;;
50569;SDS011;36525;49.398;7.614;2022-09-09T14:12:53;4.18;;;1.15;;
50569;SDS011;36525;49.398;7.614;2022-09-09T14:15:20;4.25;;;0.70;;
50569;SDS011;36525;49.398;7.614;2022-09-09T14:17:48;4.13;;;0.60;;
50569;SDS011;36525;49.398;7.614;2022-09-09T14:20:15;3.40;;;0.60;;
50569;SDS011;36525;49.398;7.614;2022-09-09T14:22:43;4.95;;;0.60;;
50569;SDS011;36525;49.398;7.614;2022-09-09T14:25:10;4.20;;;0.50;;
50569;SDS011;36525;49.398;7.614;2022-09-09T14:27:39;4.57;;;0.65;;
50569;SDS011;36525;49.398;7.614;2022-09-09T14:30:08;7.05;;;0.63;;
50569;SDS011;36525;49.398;7.614;2022-09-09T14:32:36;1.83;;;0.40;;
50569;SDS011;36525;49.398;7.614;2022-09-09T14:35:04;3.50;;;0.55;;
50569;SDS011;36525;49.398;7.614;2022-09-09T14:37:31;5.20;;;0.60;;
50569;SDS011;36525;49.398;7.614;2022-09-09T14:39:58;4.25;;;0.60;;
50569;SDS011;36525;49.398;7.614;2022-09-09T14:42:25;2.97;;;0.45;;
50569;SDS011;36525;49.398;7.614;2022-09-09T14:44:52;3.03;;;0.50;;
50569;SDS011;36525;49.398;7.614;2022-09-09T14:47:19;4.90;;;0.60;;
50569;SDS011;36525;49.398;7.614;2022-09-09T14:49:47;3.03;;;0.50;;
50569;SDS011;36525;49.398;7.614;2022-09-09T14:52:16;1.90;;;0.50;;
50569;SDS011;36525;49.398;7.614;2022-09-09T14:54:42;2.15;;;0.32;;
50569;SDS011;36525;49.398;7.614;2022-09-09T14:57:09;4.68;;;0.47;;
50569;SDS011;36525;49.398;7.614;2022-09-09T14:59:36;2.60;;;0.50;;
50569;SDS011;36525;49.398;7.614;2022-09-09T15:02:03;3.00;;;0.50;;
50569;SDS011;36525;49.398;7.614;2022-09-09T15:04:30;2.60;;;0.40;;
50569;SDS011;36525;49.398;7.614;2022-09-09T15:06:58;2.95;;;0.50;;
50569;SDS011;36525;49.398;7.614;2022-09-09T15:09:25;4.20;;;0.50;;
50569;SDS011;36525;49.398;7.614;2022-09-09T15:11:51;5.18;;;0.60;;
50569;SDS011;36525;49.398;7.614;2022-09-09T15:14:18;5.60;;;0.60;;
50569;SDS011;36525;49.398;7.614;2022-09-09T15:19:17;2.63;;;0.50;;
50569;SDS011;36525;49.398;7.614;2022-09-09T15:21:44;2.17;;;0.40;;
50569;SDS011;36525;49.398;7.614;2022-09-09T15:24:11;2.90;;;0.50;;
50569;SDS011;36525;49.398;7.614;2022-09-09T15:26:39;1.88;;;0.38;;
50569;SDS011;36525;49.398;7.614;2022-09-09T15:29:06;2.90;;;0.45;;
50569;SDS011;36525;49.398;7.614;2022-09-09T15:31:34;7.65;;;0.80;;
50569;SDS011;36525;49.398;7.614;2022-09-09T15:34:03;4.60;;;0.50;;
50569;SDS011;36525;49.398;7.614;2022-09-09T15:36:36;4.75;;;0.52;;
50569;SDS011;36525;49.398;7.614;2022-09-09T15:39:07;3.15;;;0.50;;
50569;SDS011;36525;49.398;7.614;2022-09-09T15:41:42;2.60;;;0.40;;
50569;SDS011;36525;49.398;7.614;2022-09-09T15:44:11;4.75;;;0.50;;
50569;SDS011;36525;49.398;7.614;2022-09-09T15:46:39;4.22;;;0.65;;
50569;SDS011;36525;49.398;7.614;2022-09-09T15:49:11;3.22;;;0.60;;
50569;SDS011;36525;49.398;7.614;2022-09-09T15:51:41;5.10;;;0.80;;
50569;SDS011;36525;49.398;7.614;2022-09-09T15:54:11;3.75;;;0.68;;
50569;SDS011;36525;49.398;7.614;2022-09-09T15:56:43;3.75;;;0.85;;
50569;SDS011;36525;49.398;7.614;2022-09-09T15:59:11;2.00;;;0.50;;
50569;SDS011;36525;49.398;7.614;2022-09-09T16:01:38;2.22;;;0.47;;
50569;SDS011;36525;49.398;7.614;2022-09-09T16:04:06;2.55;;;0.50;;
50569;SDS011;36525;49.398;7.614;2022-09-09T16:06:33;4.50;;;0.77;;
50569;SDS011;36525;49.398;7.614;2022-09-09T16:09:01;3.75;;;0.60;;
50569;SDS011;36525;49.398;7.614;2022-09-09T16:11:32;4.63;;;0.70;;
50569;SDS011;36525;49.398;7.614;2022-09-09T16:14:02;3.00;;;0.60;;
50569;SDS011;36525;49.398;7.614;2022-09-09T16:16:30;5.43;;;0.80;;
50569;SDS011;36525;49.398;7.614;2022-09-09T16:18:58;3.95;;;0.70;;
50569;SDS011;36525;49.398;7.614;2022-09-09T16:21:34;5.53;;;0.63;;
50569;SDS011;36525;49.398;7.614;2022-09-09T16:24:23;1.95;;;0.60;;
50569;SDS011;36525;49.398;7.614;2022-09-09T16:26:50;4.65;;;0.55;;
50569;SDS011;36525;49.398;7.614;2022-09-09T16:29:20;2.08;;;0.50;;
50569;SDS011;36525;49.398;7.614;2022-09-09T16:31:49;23.23;;;0.93;;
50569;SDS011;36525;49.398;7.614;2022-09-09T16:34:16;4.93;;;0.60;;
50569;SDS011;36525;49.398;7.614;2022-09-09T16:36:44;2.42;;;0.40;;
50569;SDS011;36525;49.398;7.614;2022-09-09T16:39:14;2.20;;;0.50;;
50569;SDS011;36525;49.398;7.614;2022-09-09T16:41:46;2.00;;;0.30;;
50569;SDS011;36525;49.398;7.614;2022-09-09T16:44:15;1.75;;;0.50;;
50569;SDS011;36525;49.398;7.614;2022-09-09T16:46:45;3.88;;;0.50;;
50569;SDS011;36525;49.398;7.614;2022-09-09T16:49:15;1.55;;;0.30;;
50569;SDS011;36525;49.398;7.614;2022-09-09T16:51:43;2.42;;;0.30;;
50569;SDS011;36525;49.398;7.614;2022-09-09T16:54:19;1.52;;;0.40;;
50569;SDS011;36525;49.398;7.614;2022-09-09T16:56:47;9.75;;;0.50;;
50569;SDS011;36525;49.398;7.614;2022-09-09T16:59:15;4.93;;;0.55;;
50569;SDS011;36525;49.398;7.614;2022-09-09T17:01:45;3.22;;;0.55;;
50569;SDS011;36525;49.398;7.614;2022-09-09T17:04:16;5.78;;;0.73;;
50569;SDS011;36525;49.398;7.614;2022-09-09T17:06:51;2.35;;;0.50;;
50569;SDS011;36525;49.398;7.614;2022-09-09T17:09:20;4.00;;;0.52;;
50569;SDS011;36525;49.398;7.614;2022-09-09T17:11:49;3.60;;;0.70;;
50569;SDS011;36525;49.398;7.614;2022-09-09T17:14:19;3.75;;;0.70;;
50569;SDS011;36525;49.398;7.614;2022-09-09T17:16:47;3.33;;;0.52;;
50569;SDS011;36525;49.398;7.614;2022-09-09T17:19:14;2.15;;;0.40;;
50569;SDS011;36525;49.398;7.614;2022-09-09T17:21:42;1.42;;;0.40;;
50569;SDS011;36525;49.398;7.614;2022-09-09T17:24:29;1.08;;;0.40;;
50569;SDS011;36525;49.398;7.614;2022-09-09T17:26:56;1.08;;;0.30;;
50569;SDS011;36525;49.398;7.614;2022-09-09T17:29:25;2.25;;;0.35;;
50569;SDS011;36525;49.398;7.614;2022-09-09T17:31:52;2.08;;;0.40;;
50569;SDS011;36525;49.398;7.614;2022-09-09T17:34:19;1.15;;;0.38;;
50569;SDS011;36525;49.398;7.614;2022-09-09T17:36:46;1.63;;;0.30;;
50569;SDS011;36525;49.398;7.614;2022-09-09T17:39:13;1.30;;;0.35;;
50569;SDS011;36525;49.398;7.614;2022-09-09T17:41:40;1.52;;;0.40;;
50569;SDS011;36525;49.398;7.614;2022-09-09T17:44:07;2.45;;;0.50;;
50569;SDS011;36525;49.398;7.614;2022-09-09T17:46:37;1.92;;;0.52;;